Time;durP1;ratioP1;P1;durP2;ratioP2;P2;SDS_P1;SDS_P2;PMS_P1;PMS_P2;Temp;Humidity;BMP_temperature;BMP_pressure;BME280_temperature;BME280_humidity;BME280_pressure;Samples;Min_cycle;Max_cycle;Signal;HPM_P1;HPM_P2
2022/06/11 00:00:32;;;;;;;;;;;;;;;;;;5008967;28;19909;-69
2022/06/11 00:02:58;;;;;;;;;;;;;;;;;;5009448;28;19959;-69
2022/06/11 00:05:24;;;;;;;;;;;;;;;;;;5013543;28;19920;-70
2022/06/11 00:07:51;;;;;;;;;;;;;;;;;;5012717;28;19913;-70
2022/06/11 00:10:17;;;;;;;;;;;;;;;;;;5013332;28;20235;-69
2022/06/11 00:12:43;;;;;;;;;;;;;;;;;;5013424;28;19948;-70
2022/06/11 00:15:09;;;;;;;;;;;;;;;;;;5013632;28;20337;-69
2022/06/11 00:17:35;;;;;;;;;;;;;;;;;;5013772;28;19959;-69
2022/06/11 00:20:04;;;;;;;;;;;;;;;;;;5013211;28;19917;-70
2022/06/11 00:22:30;;;;;;;;;;;;;;;;;;5012317;28;20469;-69
2022/06/11 00:24:56;;;;;;;;;;;;;;;;;;5013656;28;19956;-69
2022/06/11 00:27:22;;;;;;;;;;;;;;;;;;5013390;28;20390;-69
2022/06/11 00:29:48;;;;;;;;;;;;;;;;;;5012784;28;19940;-70
2022/06/11 00:32:14;;;;;;;;;;;;;;;;;;5013427;28;19991;-69
2022/06/11 00:34:40;;;;;;;;;;;;;;;;;;5012622;28;19948;-70
2022/06/11 00:37:06;;;;;;;;;;;;;;;;;;5014754;28;19909;-70
2022/06/11 00:39:32;;;;;;;;;;;;;;;;;;5013177;28;19916;-69
2022/06/11 00:41:58;;;;;;;;;;;;;;;;;;5012908;28;20406;-70
2022/06/11 00:44:24;;;;;;;;;;;;;;;;;;5012751;28;19971;-70
2022/06/11 00:46:50;;;;;;;;;;;;;;;;;;5011592;28;19944;-70
2022/06/11 00:49:16;;;;;;;;;;;;;;;;;;5012969;28;19906;-69
2022/06/11 00:51:42;;;;;;;;;;;;;;;;;;5012880;28;20440;-70
2022/06/11 00:54:08;;;;;;;;;;;;;;;;;;5017118;28;19909;-69
2022/06/11 00:56:34;;;;;;;;;;;;;;;;;;5017275;28;19976;-69
2022/06/11 00:59:00;;;;;;;;;;;;;;;;;;5016604;28;19914;-69
2022/06/11 01:01:26;;;;;;;;;;;;;;;;;;5016262;28;19924;-69
2022/06/11 01:03:52;;;;;;;;;;;;;;;;;;5016741;28;20322;-70
2022/06/11 01:06:18;;;;;;;;;;;;;;;;;;5016743;28;19913;-70
2022/06/11 01:08:44;;;;;;;;;;;;;;;;;;5016715;28;19918;-70
2022/06/11 01:11:10;;;;;;;;;;;;;;;;;;5017572;28;20378;-70
2022/06/11 01:13:36;;;;;;;;;;;;;;;;;;5015863;28;20032;-69
2022/06/11 01:16:02;;;;;;;;;;;;;;;;;;5016792;28;20367;-69
2022/06/11 01:18:28;;;;;;;;;;;;;;;;;;5016648;28;19909;-69
2022/06/11 01:20:54;;;;;;;;;;;;;;;;;;5016290;28;19975;-69
2022/06/11 01:23:20;;;;;;;;;;;;;;;;;;5017197;28;19956;-69
2022/06/11 01:25:46;;;;;;;;;;;;;;;;;;5015647;28;19917;-69
2022/06/11 01:28:12;;;;;;;;;;;;;;;;;;5016371;28;19945;-69
2022/06/11 01:30:38;;;;;;;;;;;;;;;;;;5016392;28;19937;-70
2022/06/11 01:33:04;;;;;;;;;;;;;;;;;;5016083;28;19960;-69
2022/06/11 01:35:30;;;;;;;;;;;;;;;;;;5016705;28;20322;-69
2022/06/11 01:37:57;;;;;;;;;;;;;;;;;;5016274;28;20260;-69
2022/06/11 01:40:23;;;;;;;;;;;;;;;;;;5015510;28;19913;-69
2022/06/11 01:42:50;;;;;;;;;;;;;;;;;;5015941;28;19964;-70
2022/06/11 01:45:16;;;;;;;;;;;;;;;;;;5016022;28;19909;-69
2022/06/11 01:47:42;;;;;;;;;;;;;;;;;;5016748;28;19917;-69
2022/06/11 01:50:08;;;;;;;;;;;;;;;;;;5015837;28;19956;-69
2022/06/11 01:52:33;;;;;;;;;;;;;;;;;;5015386;28;19916;-69
2022/06/11 01:54:59;;;;;;;;;;;;;;;;;;5016436;28;20326;-69
2022/06/11 01:57:25;;;;;;;;;;;;;;;;;;5015853;28;19917;-69
2022/06/11 01:59:51;;;;;;;;;;;;;;;;;;5015903;28;20418;-69
2022/06/11 02:02:17;;;;;;;;;;;;;;;;;;5017383;28;19921;-69
2022/06/11 02:04:43;;;;;;;;;;;;;;;;;;5014670;28;19916;-69
2022/06/11 02:07:09;;;;;;;;;;;;;;;;;;5015651;28;19943;-69
2022/06/11 02:09:36;;;;;;;;;;;;;;;;;;5015705;28;20355;-69
2022/06/11 02:12:02;;;;;;;;;;;;;;;;;;5015270;28;19909;-69
2022/06/11 02:14:28;;;;;;;;;;;;;;;;;;5017567;28;19992;-69
2022/06/11 02:16:54;;;;;;;;;;;;;;;;;;5015350;28;19905;-70
2022/06/11 02:19:20;;;;;;;;;;;;;;;;;;5015194;28;19905;-69
2022/06/11 02:21:47;;;;;;;;;;;;;;;;;;5014965;28;19968;-69
2022/06/11 02:24:13;;;;;;;;;;;;;;;;;;5015545;28;19910;-69
2022/06/11 02:26:39;;;;;;;;;;;;;;;;;;5015681;28;19932;-69
2022/06/11 02:29:05;;;;;;;;;;;;;;;;;;5015475;28;19915;-69
2022/06/11 02:31:31;;;;;;;;;;;;;;;;;;5014315;28;20326;-69
2022/06/11 02:33:57;;;;;;;;;;;;;;;;;;5015239;28;19948;-70
2022/06/11 02:36:24;;;;;;;;;;;;;;;;;;5015274;28;20274;-69
2022/06/11 02:38:51;;;;;;;;;;;;;;;;;;5015747;28;20278;-69
2022/06/11 02:41:16;;;;;;;;;;;;;;;;;;5014853;28;19925;-69
2022/06/11 02:43:42;;;;;;;;;;;;;;;;;;5014357;28;20351;-69
2022/06/11 02:48:53;;;;;;;;;;;;;;;;;;5014792;28;19919;-69
2022/06/11 02:51:19;;;;;;;;;;;;;;;;;;5014868;28;19910;-69
2022/06/11 02:53:45;;;;;;;;;;;;;;;;;;5015031;28;20340;-70
2022/06/11 02:56:13;;;;;;;;;;;;;;;;;;5014886;28;19955;-69
2022/06/11 02:58:39;;;;;;;;;;;;;;;;;;5009773;28;19909;-69
2022/06/11 03:01:05;;;;;;;;;;;;;;;;;;5014225;28;19959;-69
2022/06/11 03:03:30;;;;;;;;;;;;;;;;;;5014765;28;20394;-69
2022/06/11 03:05:56;;;;;;;;;;;;;;;;;;5014842;28;19909;-70
2022/06/11 03:08:22;;;;;;;;;;;;;;;;;;5014731;28;19921;-69
2022/06/11 03:10:54;;;;;;;;;;;;;;;;;;5013740;28;19987;-70
2022/06/11 03:13:20;;;;;;;;;;;;;;;;;;5013915;28;19916;-70
2022/06/11 03:15:46;;;;;;;;;;;;;;;;;;5013505;28;19909;-69
2022/06/11 03:18:13;;;;;;;;;;;;;;;;;;5015777;28;19983;-69
2022/06/11 03:20:39;;;;;;;;;;;;;;;;;;5014853;28;20004;-69
2022/06/11 03:23:05;;;;;;;;;;;;;;;;;;5014513;28;20286;-70
2022/06/11 03:25:31;;;;;;;;;;;;;;;;;;5013417;28;20043;-69
2022/06/11 03:27:57;;;;;;;;;;;;;;;;;;5014367;28;19953;-69
2022/06/11 03:30:25;;;;;;;;;;;;;;;;;;5014060;28;19948;-69
2022/06/11 03:32:51;;;;;;;;;;;;;;;;;;5014524;28;20283;-69
2022/06/11 03:35:17;;;;;;;;;;;;;;;;;;5014443;28;19924;-69
2022/06/11 03:37:43;;;;;;;;;;;;;;;;;;5013282;28;19905;-69
2022/06/11 03:40:09;;;;;;;;;;;;;;;;;;5013572;28;20371;-69
2022/06/11 03:42:35;;;;;;;;;;;;;;;;;;5013801;28;19963;-69
2022/06/11 03:45:00;;;;;;;;;;;;;;;;;;5014167;28;20382;-69
2022/06/11 03:47:26;;;;;;;;;;;;;;;;;;5013901;28;19913;-70
2022/06/11 03:49:53;;;;;;;;;;;;;;;;;;5014156;28;19944;-69
2022/06/11 03:52:19;;;;;;;;;;;;;;;;;;5013336;28;19907;-69
2022/06/11 03:54:46;;;;;;;;;;;;;;;;;;5013447;28;19920;-70
2022/06/11 03:57:11;;;;;;;;;;;;;;;;;;5013974;28;20031;-69
2022/06/11 03:59:37;;;;;;;;;;;;;;;;;;5013816;28;19999;-69
2022/06/11 04:02:03;;;;;;;;;;;;;;;;;;5012797;28;19953;-70
2022/06/11 04:04:29;;;;;;;;;;;;;;;;;;5012997;28;19995;-69
2022/06/11 04:06:58;;;;;;;;;;;;;;;;;;5013484;28;20040;-69
2022/06/11 04:09:24;;;;;;;;;;;;;;;;;;5013857;28;20363;-70
2022/06/11 04:11:50;;;;;;;;;;;;;;;;;;5013225;28;19944;-69
2022/06/11 04:14:16;;;;;;;;;;;;;;;;;;5013484;28;20084;-69
2022/06/11 04:16:42;;;;;;;;;;;;;;;;;;5012642;28;19963;-69
2022/06/11 04:19:08;;;;;;;;;;;;;;;;;;5014846;28;20313;-70
2022/06/11 04:21:34;;;;;;;;;;;;;;;;;;5013058;28;19927;-69
2022/06/11 04:24:00;;;;;;;;;;;;;;;;;;5013375;28;20378;-69
2022/06/11 04:26:26;;;;;;;;;;;;;;;;;;5013210;28;19913;-69
2022/06/11 04:28:52;;;;;;;;;;;;;;;;;;5011891;28;19980;-69
2022/06/11 04:31:18;;;;;;;;;;;;;;;;;;5013182;28;19909;-69
2022/06/11 04:33:44;;;;;;;;;;;;;;;;;;5013065;28;19920;-70
2022/06/11 04:36:11;;;;;;;;;;;;;;;;;;5013017;28;19972;-69
2022/06/11 04:38:38;;;;;;;;;;;;;;;;;;5013215;28;19909;-69
2022/06/11 04:41:04;;;;;;;;;;;;;;;;;;5013112;28;19908;-69
2022/06/11 04:43:30;;;;;;;;;;;;;;;;;;5012761;28;20425;-69
2022/06/11 04:45:56;;;;;;;;;;;;;;;;;;5013190;28;19940;-69
2022/06/11 04:48:22;;;;;;;;;;;;;;;;;;5013001;28;20477;-69
2022/06/11 04:50:48;;;;;;;;;;;;;;;;;;5012668;28;20004;-70
2022/06/11 04:53:14;;;;;;;;;;;;;;;;;;5013392;28;19983;-69
2022/06/11 04:55:40;;;;;;;;;;;;;;;;;;5012570;28;19949;-69
2022/06/11 04:58:06;;;;;;;;;;;;;;;;;;5012489;28;19932;-69
2022/06/11 05:00:32;;;;;;;;;;;;;;;;;;5013027;28;20366;-69
2022/06/11 05:02:58;;;;;;;;;;;;;;;;;;5013193;28;19925;-69
2022/06/11 05:05:24;;;;;;;;;;;;;;;;;;5012961;28;20445;-69
2022/06/11 05:07:50;;;;;;;;;;;;;;;;;;5012455;28;20278;-69
2022/06/11 05:10:16;;;;;;;;;;;;;;;;;;5012780;28;20248;-69
2022/06/11 05:12:42;;;;;;;;;;;;;;;;;;5012981;28;19949;-69
2022/06/11 05:15:08;;;;;;;;;;;;;;;;;;5013275;28;20363;-69
2022/06/11 05:17:34;;;;;;;;;;;;;;;;;;5012884;28;19917;-69
2022/06/11 05:20:00;;;;;;;;;;;;;;;;;;5012047;28;19964;-70
2022/06/11 05:22:26;;;;;;;;;;;;;;;;;;5011937;28;19961;-69
2022/06/11 05:24:52;;;;;;;;;;;;;;;;;;5012532;28;19909;-69
2022/06/11 05:27:18;;;;;;;;;;;;;;;;;;5012292;28;20441;-69
2022/06/11 05:29:44;;;;;;;;;;;;;;;;;;5013241;28;19940;-69
2022/06/11 05:32:10;;;;;;;;;;;;;;;;;;5012815;28;19924;-69
2022/06/11 05:34:36;;;;;;;;;;;;;;;;;;5011688;28;19905;-69
2022/06/11 05:37:02;;;;;;;;;;;;;;;;;;5012575;28;20071;-69
2022/06/11 05:39:28;;;;;;;;;;;;;;;;;;5014865;28;19910;-69
2022/06/11 05:41:54;;;;;;;;;;;;;;;;;;5016023;28;20397;-69
2022/06/11 05:44:21;;;;;;;;;;;;;;;;;;5016450;28;19949;-69
2022/06/11 05:46:47;;;;;;;;;;;;;;;;;;5015722;28;19905;-70
2022/06/11 05:49:14;;;;;;;;;;;;;;;;;;5015834;28;19991;-69
2022/06/11 05:51:40;;;;;;;;;;;;;;;;;;5015405;28;20367;-69
2022/06/11 05:54:06;;;;;;;;;;;;;;;;;;5016033;28;19949;-69
2022/06/11 05:56:32;;;;;;;;;;;;;;;;;;5016505;28;19947;-69
2022/06/11 05:58:58;;;;;;;;;;;;;;;;;;5016005;28;19969;-69
2022/06/11 06:01:24;;;;;;;;;;;;;;;;;;5015079;28;20478;-69
2022/06/11 06:03:50;;;;;;;;;;;;;;;;;;5015868;28;19941;-70
2022/06/11 06:06:16;;;;;;;;;;;;;;;;;;5016005;28;20325;-70
2022/06/11 06:08:44;;;;;;;;;;;;;;;;;;5015816;28;19963;-69
2022/06/11 06:11:10;;;;;;;;;;;;;;;;;;5015766;28;19916;-69
2022/06/11 06:13:48;;;;;;;;;;;;;;;;;;5014452;28;19910;-70
2022/06/11 06:16:14;;;;;;;;;;;;;;;;;;5015540;28;19909;-70
2022/06/11 06:18:40;;;;;;;;;;;;;;;;;;5014744;28;19995;-70
2022/06/11 06:21:06;;;;;;;;;;;;;;;;;;5013127;28;20019;-71
2022/06/11 06:23:32;;;;;;;;;;;;;;;;;;5015499;28;20370;-71
2022/06/11 06:25:58;;;;;;;;;;;;;;;;;;5015761;28;19963;-70
2022/06/11 06:28:24;;;;;;;;;;;;;;;;;;5008397;28;20311;-71
2022/06/11 06:30:50;;;;;;;;;;;;;;;;;;5007903;28;20000;-70
2022/06/11 06:33:16;;;;;;;;;;;;;;;;;;5012627;28;19983;-71
2022/06/11 06:35:42;;;;;;;;;;;;;;;;;;5014508;28;19945;-71
2022/06/11 06:38:08;;;;;;;;;;;;;;;;;;5015114;28;19944;-71
2022/06/11 06:40:34;;;;;;;;;;;;;;;;;;5014599;28;19979;-71
2022/06/11 06:43:00;;;;;;;;;;;;;;;;;;5014673;28;20011;-70
2022/06/11 06:45:26;;;;;;;;;;;;;;;;;;5015159;28;20347;-73
2022/06/11 06:47:52;;;;;;;;;;;;;;;;;;5014759;28;19916;-72
2022/06/11 06:50:18;;;;;;;;;;;;;;;;;;5013217;28;19921;-73
2022/06/11 06:52:44;;;;;;;;;;;;;;;;;;5014379;28;20273;-73
2022/06/11 06:55:10;;;;;;;;;;;;;;;;;;5015132;28;19933;-73
2022/06/11 06:57:36;;;;;;;;;;;;;;;;;;5014848;28;19917;-72
2022/06/11 07:00:03;;;;;;;;;;;;;;;;;;5014981;28;19909;-77
2022/06/11 07:02:29;;;;;;;;;;;;;;;;;;5014118;28;19921;-73
2022/06/11 07:04:55;;;;;;;;;;;;;;;;;;5013192;28;19959;-73
2022/06/11 07:07:21;;;;;;;;;;;;;;;;;;5014534;28;19905;-74
2022/06/11 07:09:46;;;;;;;;;;;;;;;;;;5013412;28;19933;-72
2022/06/11 07:12:12;;;;;;;;;;;;;;;;;;5014447;28;20003;-74
2022/06/11 07:14:38;;;;;;;;;;;;;;;;;;5014839;28;19910;-74
2022/06/11 07:17:06;;;;;;;;;;;;;;;;;;5014282;28;20336;-73
2022/06/11 07:19:32;;;;;;;;;;;;;;;;;;5013741;28;19905;-73
2022/06/11 07:21:58;;;;;;;;;;;;;;;;;;5014004;28;20025;-72
2022/06/11 07:24:24;;;;;;;;;;;;;;;;;;5013682;28;19980;-76
2022/06/11 07:26:50;;;;;;;;;;;;;;;;;;5014701;28;19909;-77
2022/06/11 07:29:17;;;;;;;;;;;;;;;;;;5013869;28;20386;-76
2022/06/11 07:31:44;;;;;;;;;;;;;;;;;;5012951;28;19916;-75
2022/06/11 07:34:10;;;;;;;;;;;;;;;;;;5015835;28;19905;-76
2022/06/11 07:36:37;;;;;;;;;;;;;;;;;;5014107;28;20001;-76
2022/06/11 07:39:03;;;;;;;;;;;;;;;;;;5013972;28;19945;-76
2022/06/11 07:41:29;;;;;;;;;;;;;;;;;;5013512;28;19969;-74
2022/06/11 07:43:55;;;;;;;;;;;;;;;;;;5013534;28;19909;-74
2022/06/11 07:46:21;;;;;;;;;;;;;;;;;;5011915;28;19913;-72
2022/06/11 07:48:48;;;;;;;;;;;;;;;;;;5012838;28;19964;-71
2022/06/11 07:51:14;;;;;;;;;;;;;;;;;;5013319;28;19924;-74
2022/06/11 07:53:40;;;;;;;;;;;;;;;;;;5009379;28;19917;-76
2022/06/11 07:56:06;;;;;;;;;;;;;;;;;;5001427;28;19980;-77
2022/06/11 07:58:32;;;;;;;;;;;;;;;;;;5008670;28;19916;-75
2022/06/11 08:00:58;;;;;;;;;;;;;;;;;;5005836;28;19913;-75
2022/06/11 08:03:26;;;;;;;;;;;;;;;;;;5006235;28;20026;-76
2022/06/11 08:05:52;;;;;;;;;;;;;;;;;;5006074;28;19924;-75
2022/06/11 08:08:18;;;;;;;;;;;;;;;;;;5005681;28;19917;-75
2022/06/11 08:10:44;;;;;;;;;;;;;;;;;;5009723;28;20140;-75
2022/06/11 08:13:10;;;;;;;;;;;;;;;;;;5008077;28;19948;-75
2022/06/11 08:15:36;;;;;;;;;;;;;;;;;;5005883;28;19948;-75
2022/06/11 08:18:02;;;;;;;;;;;;;;;;;;5005743;28;19944;-75
2022/06/11 08:20:28;;;;;;;;;;;;;;;;;;5006953;28;20386;-75
2022/06/11 08:22:54;;;;;;;;;;;;;;;;;;5008414;28;19983;-75
2022/06/11 08:25:20;;;;;;;;;;;;;;;;;;5007117;28;19909;-75
2022/06/11 08:27:46;;;;;;;;;;;;;;;;;;5006023;28;19959;-75
2022/06/11 08:30:12;;;;;;;;;;;;;;;;;;5007258;28;20489;-77
2022/06/11 08:32:38;;;;;;;;;;;;;;;;;;5005594;28;19953;-77
2022/06/11 08:35:04;;;;;;;;;;;;;;;;;;5007767;28;19963;-77
2022/06/11 08:37:30;;;;;;;;;;;;;;;;;;5009419;28;19948;-77
2022/06/11 08:39:56;;;;;;;;;;;;;;;;;;5005345;28;19976;-77
2022/06/11 08:42:22;;;;;;;;;;;;;;;;;;5006185;28;19921;-77
2022/06/11 08:44:48;;;;;;;;;;;;;;;;;;5007042;28;20006;-76
2022/06/11 08:47:14;;;;;;;;;;;;;;;;;;5003800;28;20073;-77
2022/06/11 08:49:40;;;;;;;;;;;;;;;;;;5008986;28;20671;-84
2022/06/11 08:52:07;;;;;;;;;;;;;;;;;;5005186;28;19913;-71
2022/06/11 08:54:33;;;;;;;;;;;;;;;;;;5005012;28;19923;-72
2022/06/11 08:56:59;;;;;;;;;;;;;;;;;;5000046;28;19913;-77
2022/06/11 08:59:25;;;;;;;;;;;;;;;;;;5009142;28;19914;-78
2022/06/11 09:01:51;;;;;;;;;;;;;;;;;;5002390;28;19920;-78
2022/06/11 09:04:17;;;;;;;;;;;;;;;;;;5009138;28;19956;-76
2022/06/11 09:06:43;;;;;;;;;;;;;;;;;;5008506;28;20251;-77
2022/06/11 09:09:09;;;;;;;;;;;;;;;;;;5008839;28;19982;-77
2022/06/11 09:11:35;;;;;;;;;;;;;;;;;;5008126;28;19953;-76
2022/06/11 09:14:01;;;;;;;;;;;;;;;;;;5012322;28;19909;-76
2022/06/11 09:16:26;;;;;;;;;;;;;;;;;;5014108;28;19913;-76
2022/06/11 09:18:52;;;;;;;;;;;;;;;;;;5012742;28;19949;-77
2022/06/11 09:21:18;;;;;;;;;;;;;;;;;;5011968;28;19917;-77
2022/06/11 09:23:45;;;;;;;;;;;;;;;;;;5013134;28;19956;-76
2022/06/11 09:26:11;;;;;;;;;;;;;;;;;;5012904;28;19964;-76
2022/06/11 09:28:37;;;;;;;;;;;;;;;;;;5015461;28;20371;-76
2022/06/11 09:31:03;;;;;;;;;;;;;;;;;;5013538;28;19972;-77
2022/06/11 09:33:29;;;;;;;;;;;;;;;;;;5012125;28;20363;-77
2022/06/11 09:35:54;;;;;;;;;;;;;;;;;;5012133;28;19936;-76
2022/06/11 09:38:20;;;;;;;;;;;;;;;;;;5018150;28;20294;-76
2022/06/11 09:40:49;;;;;;;;;;;;;;;;;;5014797;28;19956;-77
2022/06/11 09:43:15;;;;;;;;;;;;;;;;;;5016436;28;20384;-76
2022/06/11 09:45:41;;;;;;;;;;;;;;;;;;5016950;28;20271;-77
2022/06/11 09:48:07;;;;;;;;;;;;;;;;;;5016315;28;19963;-76
2022/06/11 09:50:33;;;;;;;;;;;;;;;;;;5016566;28;19910;-77
2022/06/11 09:52:59;;;;;;;;;;;;;;;;;;5015960;28;19937;-77
2022/06/11 09:55:27;;;;;;;;;;;;;;;;;;5014469;28;19970;-77
2022/06/11 09:57:54;;;;;;;;;;;;;;;;;;5015705;28;19913;-77
2022/06/11 10:00:20;;;;;;;;;;;;;;;;;;5015745;28;19909;-77
2022/06/11 10:05:18;;;;;;;;;;;;;;;;;;5006963;28;19909;-75
2022/06/11 10:07:44;;;;;;;;;;;;;;;;;;5014752;28;20004;-78
2022/06/11 10:10:10;;;;;;;;;;;;;;;;;;5016623;28;19941;-78
2022/06/11 10:12:36;;;;;;;;;;;;;;;;;;5016074;28;19956;-78
2022/06/11 10:15:02;;;;;;;;;;;;;;;;;;5009432;28;19955;-76
2022/06/11 10:17:28;;;;;;;;;;;;;;;;;;5014984;28;19909;-77
2022/06/11 10:19:54;;;;;;;;;;;;;;;;;;5014497;28;19945;-79
2022/06/11 10:22:20;;;;;;;;;;;;;;;;;;5015520;28;19917;-79
2022/06/11 10:24:46;;;;;;;;;;;;;;;;;;5013978;28;19928;-81
2022/06/11 10:27:12;;;;;;;;;;;;;;;;;;5015503;28;19996;-79
2022/06/11 10:29:38;;;;;;;;;;;;;;;;;;5015621;28;20421;-79
2022/06/11 10:32:04;;;;;;;;;;;;;;;;;;5015009;28;20004;-79
2022/06/11 10:34:31;;;;;;;;;;;;;;;;;;5014583;28;19992;-78
2022/06/11 10:36:57;;;;;;;;;;;;;;;;;;5009589;28;19905;-79
2022/06/11 10:39:23;;;;;;;;;;;;;;;;;;5015129;28;20330;-79
2022/06/11 10:41:49;;;;;;;;;;;;;;;;;;5015052;28;19910;-80
2022/06/11 10:44:15;;;;;;;;;;;;;;;;;;5014078;28;19952;-77
2022/06/11 10:46:41;;;;;;;;;;;;;;;;;;5014282;28;20405;-79
2022/06/11 10:49:07;;;;;;;;;;;;;;;;;;5015086;28;19956;-78
2022/06/11 10:51:33;;;;;;;;;;;;;;;;;;5015416;28;19916;-78
2022/06/11 10:53:59;;;;;;;;;;;;;;;;;;5014509;28;19948;-79
2022/06/11 10:56:25;;;;;;;;;;;;;;;;;;5013955;28;20294;-79
2022/06/11 10:58:51;;;;;;;;;;;;;;;;;;5014111;28;19952;-78
2022/06/11 11:01:17;;;;;;;;;;;;;;;;;;5015152;28;19905;-76
2022/06/11 11:03:43;;;;;;;;;;;;;;;;;;5014290;28;20286;-78
2022/06/11 11:06:09;;;;;;;;;;;;;;;;;;5015376;28;19971;-78
2022/06/11 11:08:35;;;;;;;;;;;;;;;;;;5012849;28;19967;-80
2022/06/11 11:11:01;;;;;;;;;;;;;;;;;;5014644;28;19916;-78
2022/06/11 11:13:27;;;;;;;;;;;;;;;;;;5029477;28;19948;-79
2022/06/11 11:15:53;;;;;;;;;;;;;;;;;;5013951;28;20394;-80
2022/06/11 11:18:19;;;;;;;;;;;;;;;;;;5014191;28;19918;-79
2022/06/11 11:20:45;;;;;;;;;;;;;;;;;;5014297;28;20398;-80
2022/06/11 11:23:11;;;;;;;;;;;;;;;;;;5014216;28;19956;-78
2022/06/11 11:25:37;;;;;;;;;;;;;;;;;;5013506;28;19944;-79
2022/06/11 11:28:03;;;;;;;;;;;;;;;;;;5013936;28;19913;-79
2022/06/11 11:30:29;;;;;;;;;;;;;;;;;;5014272;28;19982;-79
2022/06/11 11:32:55;;;;;;;;;;;;;;;;;;5014099;28;19920;-81
2022/06/11 11:35:21;;;;;;;;;;;;;;;;;;5014201;28;20328;-80
2022/06/11 11:37:47;;;;;;;;;;;;;;;;;;5012538;28;19937;-75
2022/06/11 11:40:13;;;;;;;;;;;;;;;;;;5014466;28;19905;-76
2022/06/11 11:42:39;;;;;;;;;;;;;;;;;;5013704;28;20331;-79
2022/06/11 11:45:04;;;;;;;;;;;;;;;;;;5013943;28;19910;-76
2022/06/11 11:47:30;;;;;;;;;;;;;;;;;;5014169;28;19931;-85
2022/06/11 11:49:57;;;;;;;;;;;;;;;;;;5013654;28;19928;-76
2022/06/11 11:52:23;;;;;;;;;;;;;;;;;;5012873;28;20004;-76
2022/06/11 11:54:49;;;;;;;;;;;;;;;;;;5013214;28;19988;-74
2022/06/11 11:57:15;;;;;;;;;;;;;;;;;;5013040;28;19996;-77
2022/06/11 11:59:41;;;;;;;;;;;;;;;;;;5013290;28;19956;-78
2022/06/11 12:02:07;;;;;;;;;;;;;;;;;;5013645;28;19987;-79
2022/06/11 12:04:33;;;;;;;;;;;;;;;;;;5012742;28;19956;-79
2022/06/11 12:06:59;;;;;;;;;;;;;;;;;;5013340;28;19967;-78
2022/06/11 12:09:25;;;;;;;;;;;;;;;;;;5013184;28;19935;-79
2022/06/11 12:11:51;;;;;;;;;;;;;;;;;;5012340;28;20004;-78
2022/06/11 12:14:17;;;;;;;;;;;;;;;;;;5013100;28;19909;-77
2022/06/11 12:16:43;;;;;;;;;;;;;;;;;;5013172;28;19909;-79
2022/06/11 12:19:09;;;;;;;;;;;;;;;;;;5013383;28;20319;-79
2022/06/11 12:21:34;;;;;;;;;;;;;;;;;;5013098;28;19979;-78
2022/06/11 12:24:00;;;;;;;;;;;;;;;;;;5013345;28;19913;-78
2022/06/11 12:26:27;;;;;;;;;;;;;;;;;;5013638;28;19937;-78
2022/06/11 12:28:53;;;;;;;;;;;;;;;;;;5012197;28;19920;-78
2022/06/11 12:31:19;;;;;;;;;;;;;;;;;;5013564;28;19909;-78
2022/06/11 12:33:45;;;;;;;;;;;;;;;;;;5013372;28;20382;-78
2022/06/11 12:36:11;;;;;;;;;;;;;;;;;;5012962;28;20000;-77
2022/06/11 12:38:37;;;;;;;;;;;;;;;;;;5013200;28;19945;-79
2022/06/11 12:41:03;;;;;;;;;;;;;;;;;;5013289;28;20349;-79
2022/06/11 12:43:29;;;;;;;;;;;;;;;;;;5012118;28;19975;-79
2022/06/11 12:45:55;;;;;;;;;;;;;;;;;;5011543;28;19910;-79
2022/06/11 12:48:21;;;;;;;;;;;;;;;;;;5013114;28;20030;-78
2022/06/11 12:50:48;;;;;;;;;;;;;;;;;;5012778;28;19910;-78
2022/06/11 12:53:14;;;;;;;;;;;;;;;;;;4997498;28;19909;-78
2022/06/11 12:55:40;;;;;;;;;;;;;;;;;;5012807;28;19959;-78
2022/06/11 12:58:06;;;;;;;;;;;;;;;;;;5001789;28;19945;-79
2022/06/11 13:00:32;;;;;;;;;;;;;;;;;;5007825;28;19910;-78
2022/06/11 13:02:58;;;;;;;;;;;;;;;;;;5012778;28;20031;-79
2022/06/11 13:05:24;;;;;;;;;;;;;;;;;;5012594;28;19941;-79
2022/06/11 13:07:50;;;;;;;;;;;;;;;;;;5012257;28;19968;-79
2022/06/11 13:10:16;;;;;;;;;;;;;;;;;;5012122;28;20397;-78
2022/06/11 13:12:42;;;;;;;;;;;;;;;;;;5012679;28;19909;-78
2022/06/11 13:15:08;;;;;;;;;;;;;;;;;;5012939;28;21510;-78
2022/06/11 13:17:35;;;;;;;;;;;;;;;;;;5013070;28;19949;-78
2022/06/11 13:20:01;;;;;;;;;;;;;;;;;;5012195;28;19992;-78
2022/06/11 13:22:27;;;;;;;;;;;;;;;;;;5011872;28;20007;-78
2022/06/11 13:24:53;;;;;;;;;;;;;;;;;;5012672;28;20377;-78
2022/06/11 13:27:19;;;;;;;;;;;;;;;;;;5013194;28;19913;-78
2022/06/11 13:29:45;;;;;;;;;;;;;;;;;;5010663;28;19909;-78
2022/06/11 13:32:11;;;;;;;;;;;;;;;;;;5013872;28;20382;-78
2022/06/11 13:34:37;;;;;;;;;;;;;;;;;;5008885;28;19957;-78
2022/06/11 13:37:03;;;;;;;;;;;;;;;;;;5005254;28;20004;-78
2022/06/11 13:39:29;;;;;;;;;;;;;;;;;;5005692;28;20495;-79
2022/06/11 13:41:55;;;;;;;;;;;;;;;;;;5005075;28;19955;-78
2022/06/11 13:44:21;;;;;;;;;;;;;;;;;;5005574;28;19921;-78
2022/06/11 13:46:47;;;;;;;;;;;;;;;;;;5008478;28;19951;-78
2022/06/11 13:49:13;;;;;;;;;;;;;;;;;;5003423;28;19909;-78
2022/06/11 13:51:39;;;;;;;;;;;;;;;;;;5005290;28;19960;-78
2022/06/11 13:56:50;;;;;;;;;;;;;;;;;;5005442;28;20398;-78
2022/06/11 13:59:16;;;;;;;;;;;;;;;;;;5006455;28;19945;-78
2022/06/11 14:01:42;;;;;;;;;;;;;;;;;;5027044;28;20369;-78
2022/06/11 14:04:08;;;;;;;;;;;;;;;;;;5008598;28;19912;-78
2022/06/11 14:06:33;;;;;;;;;;;;;;;;;;5010304;28;20344;-78
2022/06/11 14:08:59;;;;;;;;;;;;;;;;;;5008684;28;19956;-78
2022/06/11 14:11:26;;;;;;;;;;;;;;;;;;5008847;28;19999;-78
2022/06/11 14:13:53;;;;;;;;;;;;;;;;;;5011463;28;20001;-78
2022/06/11 14:16:19;;;;;;;;;;;;;;;;;;5010471;28;19992;-78
2022/06/11 14:18:45;;;;;;;;;;;;;;;;;;5007908;28;20051;-78
2022/06/11 14:21:11;;;;;;;;;;;;;;;;;;5008859;28;19924;-79
2022/06/11 14:23:37;;;;;;;;;;;;;;;;;;5008201;28;20376;-78
2022/06/11 14:26:04;;;;;;;;;;;;;;;;;;5010419;28;20008;-78
2022/06/11 14:28:30;;;;;;;;;;;;;;;;;;5010445;28;19913;-78
2022/06/11 14:30:56;;;;;;;;;;;;;;;;;;5007561;28;19956;-78
2022/06/11 14:33:26;;;;;;;;;;;;;;;;;;5008003;28;19972;-79
2022/06/11 14:35:53;;;;;;;;;;;;;;;;;;5008414;28;19913;-79
2022/06/11 14:38:19;;;;;;;;;;;;;;;;;;5008344;28;19914;-79
2022/06/11 14:40:46;;;;;;;;;;;;;;;;;;5012069;28;19991;-79
2022/06/11 14:43:12;;;;;;;;;;;;;;;;;;5007996;28;20438;-79
2022/06/11 14:45:38;;;;;;;;;;;;;;;;;;5007694;28;20000;-79
2022/06/11 14:48:04;;;;;;;;;;;;;;;;;;5007515;28;19976;-78
2022/06/11 14:50:30;;;;;;;;;;;;;;;;;;5007809;28;19956;-79
2022/06/11 14:52:55;;;;;;;;;;;;;;;;;;5010169;28;20000;-78
2022/06/11 14:55:21;;;;;;;;;;;;;;;;;;5008979;28;20334;-78
2022/06/11 14:57:47;;;;;;;;;;;;;;;;;;5007936;28;19945;-78
2022/06/11 15:00:13;;;;;;;;;;;;;;;;;;5009205;28;19953;-78
2022/06/11 15:02:39;;;;;;;;;;;;;;;;;;5010487;28;20418;-79
2022/06/11 15:05:06;;;;;;;;;;;;;;;;;;5012180;28;19905;-79
2022/06/11 15:07:35;;;;;;;;;;;;;;;;;;5012078;28;19906;-78
2022/06/11 15:10:01;;;;;;;;;;;;;;;;;;5006358;28;19909;-79
2022/06/11 15:12:27;;;;;;;;;;;;;;;;;;5009799;28;19940;-78
2022/06/11 15:14:53;;;;;;;;;;;;;;;;;;5009497;28;19992;-78
2022/06/11 15:17:19;;;;;;;;;;;;;;;;;;5011047;28;19913;-78
2022/06/11 15:19:45;;;;;;;;;;;;;;;;;;5013492;28;19905;-78
2022/06/11 15:22:11;;;;;;;;;;;;;;;;;;5010165;28;20357;-78
2022/06/11 15:24:37;;;;;;;;;;;;;;;;;;5010133;28;19916;-78
2022/06/11 15:27:03;;;;;;;;;;;;;;;;;;5009979;28;19909;-79
2022/06/11 15:29:29;;;;;;;;;;;;;;;;;;5012741;28;20333;-78
2022/06/11 15:31:54;;;;;;;;;;;;;;;;;;5013541;28;19915;-79
2022/06/11 15:34:21;;;;;;;;;;;;;;;;;;5014101;28;19917;-79
2022/06/11 15:36:47;;;;;;;;;;;;;;;;;;5013925;28;19931;-79
2022/06/11 15:39:13;;;;;;;;;;;;;;;;;;5008455;28;20422;-78
2022/06/11 15:41:40;;;;;;;;;;;;;;;;;;5014283;28;19913;-78
2022/06/11 15:44:06;;;;;;;;;;;;;;;;;;5014013;28;19919;-79
2022/06/11 15:46:32;;;;;;;;;;;;;;;;;;5013242;28;19992;-79
2022/06/11 15:48:59;;;;;;;;;;;;;;;;;;5013781;28;20355;-79
2022/06/11 15:51:25;;;;;;;;;;;;;;;;;;5014198;28;19914;-79
2022/06/11 15:56:35;;;;;;;;;;;;;;;;;;5014115;28;19979;-79
2022/06/11 15:59:01;;;;;;;;;;;;;;;;;;5013121;28;19937;-80
2022/06/11 16:01:27;;;;;;;;;;;;;;;;;;5010727;28;19960;-79
2022/06/11 16:03:53;;;;;;;;;;;;;;;;;;5013355;28;20431;-79
2022/06/11 16:06:20;;;;;;;;;;;;;;;;;;5013464;28;19909;-80
2022/06/11 16:08:48;;;;;;;;;;;;;;;;;;5009098;28;19963;-80
2022/06/11 16:11:14;;;;;;;;;;;;;;;;;;5013406;28;19923;-79
2022/06/11 16:13:40;;;;;;;;;;;;;;;;;;5012368;28;19905;-79
2022/06/11 16:16:06;;;;;;;;;;;;;;;;;;5013844;28;19996;-79
2022/06/11 16:18:32;;;;;;;;;;;;;;;;;;5013340;28;19968;-79
2022/06/11 16:20:58;;;;;;;;;;;;;;;;;;5013391;28;19918;-79
2022/06/11 16:23:24;;;;;;;;;;;;;;;;;;5013303;28;19960;-78
2022/06/11 16:25:50;;;;;;;;;;;;;;;;;;5012006;28;19967;-80
2022/06/11 16:28:16;;;;;;;;;;;;;;;;;;5012622;28;19909;-81
2022/06/11 16:30:42;;;;;;;;;;;;;;;;;;5012670;28;19968;-79
2022/06/11 16:33:08;;;;;;;;;;;;;;;;;;5012970;28;19948;-81
2022/06/11 16:35:38;;;;;;;;;;;29.80;53.90;;;;;;5013012;28;19941;-71
2022/06/11 16:38:23;;;;;;;;;;;29.90;54.60;;;;;;5010005;28;19910;-70
2022/06/11 16:40:54;;;;;;;;;;;29.50;54.30;;;;;;5003520;28;19975;-68
2022/06/11 16:43:25;;;;;;;;;;;29.40;54.90;;;;;;5008061;28;19961;-68
2022/06/11 16:45:53;;;;;;;;;;;29.40;54.40;;;;;;5004144;28;20429;-68